sensor_id;sensor_type;location;lat;lon;timestamp;temperature;humidity
56002;DHT22;41886;45.688;11.512;2022-10-16T00:01:54;18.00;99.90
56002;DHT22;41886;45.688;11.512;2022-10-16T00:04:26;18.00;99.90
56002;DHT22;41886;45.688;11.512;2022-10-16T00:06:52;18.00;99.90
56002;DHT22;41886;45.688;11.512;2022-10-16T00:09:26;18.00;99.90
56002;DHT22;41886;45.688;11.512;2022-10-16T00:11:53;18.00;99.90
56002;DHT22;41886;45.688;11.512;2022-10-16T00:14:19;18.10;99.90
56002;DHT22;41886;45.688;11.512;2022-10-16T00:16:47;18.10;99.90
56002;DHT22;41886;45.688;11.512;2022-10-16T00:19:14;18.10;99.90
56002;DHT22;41886;45.688;11.512;2022-10-16T00:21:44;18.10;99.90
56002;DHT22;41886;45.688;11.512;2022-10-16T00:24:16;18.00;99.90
56002;DHT22;41886;45.688;11.512;2022-10-16T00:26:44;17.90;99.90
56002;DHT22;41886;45.688;11.512;2022-10-16T00:29:11;17.90;99.90
56002;DHT22;41886;45.688;11.512;2022-10-16T00:31:42;18.00;99.90
56002;DHT22;41886;45.688;11.512;2022-10-16T00:34:10;18.00;99.90
56002;DHT22;41886;45.688;11.512;2022-10-16T00:36:42;18.00;99.90
56002;DHT22;41886;45.688;11.512;2022-10-16T00:39:21;17.90;99.90
56002;DHT22;41886;45.688;11.512;2022-10-16T00:42:04;17.80;99.90
56002;DHT22;41886;45.688;11.512;2022-10-16T00:47:36;17.80;99.90
56002;DHT22;41886;45.688;11.512;2022-10-16T00:52:48;17.70;99.90
56002;DHT22;41886;45.688;11.512;2022-10-16T00:55:25;17.60;99.90
56002;DHT22;41886;45.688;11.512;2022-10-16T00:57:54;17.60;99.90
56002;DHT22;41886;45.688;11.512;2022-10-16T01:00:26;17.50;99.90
56002;DHT22;41886;45.688;11.512;2022-10-16T01:03:01;17.50;99.90
56002;DHT22;41886;45.688;11.512;2022-10-16T01:05:48;17.50;99.90
56002;DHT22;41886;45.688;11.512;2022-10-16T01:08:39;17.50;99.90
56002;DHT22;41886;45.688;11.512;2022-10-16T01:11:37;17.50;99.90
56002;DHT22;41886;45.688;11.512;2022-10-16T01:14:06;17.50;99.90
56002;DHT22;41886;45.688;11.512;2022-10-16T01:16:49;17.40;99.90
56002;DHT22;41886;45.688;11.512;2022-10-16T01:22:05;17.20;99.90
56002;DHT22;41886;45.688;11.512;2022-10-16T01:24:48;17.20;99.90
56002;DHT22;41886;45.688;11.512;2022-10-16T01:27:27;17.10;99.90
56002;DHT22;41886;45.688;11.512;2022-10-16T01:30:03;17.00;99.90
56002;DHT22;41886;45.688;11.512;2022-10-16T01:32:42;16.90;99.90
56002;DHT22;41886;45.688;11.512;2022-10-16T01:35:28;16.80;99.90
56002;DHT22;41886;45.688;11.512;2022-10-16T01:38:03;16.70;99.90
56002;DHT22;41886;45.688;11.512;2022-10-16T01:40:35;16.60;99.90
56002;DHT22;41886;45.688;11.512;2022-10-16T01:43:14;16.70;99.90
56002;DHT22;41886;45.688;11.512;2022-10-16T01:45:46;16.60;99.90
56002;DHT22;41886;45.688;11.512;2022-10-16T01:48:33;16.50;99.90
56002;DHT22;41886;45.688;11.512;2022-10-16T01:51:08;16.50;99.90
56002;DHT22;41886;45.688;11.512;2022-10-16T01:53:39;16.30;99.90
56002;DHT22;41886;45.688;11.512;2022-10-16T01:56:17;16.30;99.90
56002;DHT22;41886;45.688;11.512;2022-10-16T01:59:03;16.20;99.90
56002;DHT22;41886;45.688;11.512;2022-10-16T02:01:38;16.10;99.90
56002;DHT22;41886;45.688;11.512;2022-10-16T02:04:32;16.10;99.90
56002;DHT22;41886;45.688;11.512;2022-10-16T02:07:06;16.20;99.90
56002;DHT22;41886;45.688;11.512;2022-10-16T02:09:38;16.00;99.90
56002;DHT22;41886;45.688;11.512;2022-10-16T02:12:24;16.00;99.90
56002;DHT22;41886;45.688;11.512;2022-10-16T02:14:58;15.90;99.90
56002;DHT22;41886;45.688;11.512;2022-10-16T02:17:33;15.80;99.90
56002;DHT22;41886;45.688;11.512;2022-10-16T02:20:05;15.90;99.90
56002;DHT22;41886;45.688;11.512;2022-10-16T02:22:45;15.90;99.90
56002;DHT22;41886;45.688;11.512;2022-10-16T02:25:22;15.90;99.90
56002;DHT22;41886;45.688;11.512;2022-10-16T02:28:59;15.80;99.90
56002;DHT22;41886;45.688;11.512;2022-10-16T02:30:57;15.70;99.90
56002;DHT22;41886;45.688;11.512;2022-10-16T02:33:24;15.80;99.90
56002;DHT22;41886;45.688;11.512;2022-10-16T02:35:50;15.90;99.90
56002;DHT22;41886;45.688;11.512;2022-10-16T02:38:21;15.90;99.90
56002;DHT22;41886;45.688;11.512;2022-10-16T02:40:47;16.10;99.90
56002;DHT22;41886;45.688;11.512;2022-10-16T02:43:13;16.00;99.90
56002;DHT22;41886;45.688;11.512;2022-10-16T02:45:39;15.90;99.90
56002;DHT22;41886;45.688;11.512;2022-10-16T02:48:05;15.90;99.90
56002;DHT22;41886;45.688;11.512;2022-10-16T02:50:32;15.80;99.90
56002;DHT22;41886;45.688;11.512;2022-10-16T02:52:57;15.80;99.90
56002;DHT22;41886;45.688;11.512;2022-10-16T02:55:23;15.70;99.90
56002;DHT22;41886;45.688;11.512;2022-10-16T02:57:53;15.90;99.90
56002;DHT22;41886;45.688;11.512;2022-10-16T03:00:19;15.80;99.90
56002;DHT22;41886;45.688;11.512;2022-10-16T03:02:45;15.90;99.90
56002;DHT22;41886;45.688;11.512;2022-10-16T03:05:11;15.90;99.90
56002;DHT22;41886;45.688;11.512;2022-10-16T03:07:37;15.90;99.90
56002;DHT22;41886;45.688;11.512;2022-10-16T03:10:04;15.90;99.90
56002;DHT22;41886;45.688;11.512;2022-10-16T03:12:30;15.90;99.90
56002;DHT22;41886;45.688;11.512;2022-10-16T03:14:56;15.90;99.90
56002;DHT22;41886;45.688;11.512;2022-10-16T03:17:22;15.90;99.90
56002;DHT22;41886;45.688;11.512;2022-10-16T03:19:48;15.90;99.90
56002;DHT22;41886;45.688;11.512;2022-10-16T03:22:14;16.00;99.90
56002;DHT22;41886;45.688;11.512;2022-10-16T03:24:40;15.90;99.90
56002;DHT22;41886;45.688;11.512;2022-10-16T03:27:06;15.90;99.90
56002;DHT22;41886;45.688;11.512;2022-10-16T03:29:32;15.80;99.90
56002;DHT22;41886;45.688;11.512;2022-10-16T03:31:58;15.80;99.90
56002;DHT22;41886;45.688;11.512;2022-10-16T03:34:24;15.70;99.90
56002;DHT22;41886;45.688;11.512;2022-10-16T03:36:49;15.70;99.90
56002;DHT22;41886;45.688;11.512;2022-10-16T03:39:16;15.70;99.90
56002;DHT22;41886;45.688;11.512;2022-10-16T03:41:42;15.70;99.90
56002;DHT22;41886;45.688;11.512;2022-10-16T03:44:07;15.60;99.90
56002;DHT22;41886;45.688;11.512;2022-10-16T03:46:40;15.50;99.90
56002;DHT22;41886;45.688;11.512;2022-10-16T03:49:06;15.50;99.90
56002;DHT22;41886;45.688;11.512;2022-10-16T03:51:31;15.40;99.90
56002;DHT22;41886;45.688;11.512;2022-10-16T03:53:57;15.40;99.90
56002;DHT22;41886;45.688;11.512;2022-10-16T03:56:23;15.40;99.90
56002;DHT22;41886;45.688;11.512;2022-10-16T03:58:49;15.50;99.90
56002;DHT22;41886;45.688;11.512;2022-10-16T04:01:15;15.40;99.90
56002;DHT22;41886;45.688;11.512;2022-10-16T04:03:41;15.30;99.90
56002;DHT22;41886;45.688;11.512;2022-10-16T04:06:07;15.30;99.90
56002;DHT22;41886;45.688;11.512;2022-10-16T04:08:35;15.50;99.90
56002;DHT22;41886;45.688;11.512;2022-10-16T04:11:02;15.50;99.90
56002;DHT22;41886;45.688;11.512;2022-10-16T04:13:28;15.50;99.90
56002;DHT22;41886;45.688;11.512;2022-10-16T04:15:54;15.50;99.90
56002;DHT22;41886;45.688;11.512;2022-10-16T04:18:20;15.50;99.90
56002;DHT22;41886;45.688;11.512;2022-10-16T04:20:46;15.50;99.90
56002;DHT22;41886;45.688;11.512;2022-10-16T04:23:11;15.40;99.90
56002;DHT22;41886;45.688;11.512;2022-10-16T04:25:37;15.40;99.90
56002;DHT22;41886;45.688;11.512;2022-10-16T04:28:03;15.40;99.90
56002;DHT22;41886;45.688;11.512;2022-10-16T04:30:29;15.30;99.90
56002;DHT22;41886;45.688;11.512;2022-10-16T04:32:55;15.30;99.90
56002;DHT22;41886;45.688;11.512;2022-10-16T04:35:21;15.30;99.90
56002;DHT22;41886;45.688;11.512;2022-10-16T04:37:47;15.30;99.90
56002;DHT22;41886;45.688;11.512;2022-10-16T04:40:13;15.20;99.90
56002;DHT22;41886;45.688;11.512;2022-10-16T04:42:39;15.10;99.90
56002;DHT22;41886;45.688;11.512;2022-10-16T04:45:06;15.00;99.90
56002;DHT22;41886;45.688;11.512;2022-10-16T04:47:33;15.10;99.90
56002;DHT22;41886;45.688;11.512;2022-10-16T04:49:59;15.10;99.90
56002;DHT22;41886;45.688;11.512;2022-10-16T04:52:26;15.00;99.90
56002;DHT22;41886;45.688;11.512;2022-10-16T04:54:52;15.00;99.90
56002;DHT22;41886;45.688;11.512;2022-10-16T04:57:19;15.10;99.90
56002;DHT22;41886;45.688;11.512;2022-10-16T04:59:45;15.10;99.90
56002;DHT22;41886;45.688;11.512;2022-10-16T05:02:11;15.10;99.90
56002;DHT22;41886;45.688;11.512;2022-10-16T05:04:37;14.90;99.90
56002;DHT22;41886;45.688;11.512;2022-10-16T05:07:03;14.80;99.90
56002;DHT22;41886;45.688;11.512;2022-10-16T05:09:29;14.70;99.90
56002;DHT22;41886;45.688;11.512;2022-10-16T05:11:56;14.60;99.90
56002;DHT22;41886;45.688;11.512;2022-10-16T05:14:22;14.60;99.90
56002;DHT22;41886;45.688;11.512;2022-10-16T05:16:47;14.60;99.90
56002;DHT22;41886;45.688;11.512;2022-10-16T05:19:14;14.60;99.90
56002;DHT22;41886;45.688;11.512;2022-10-16T05:21:40;14.60;99.90
56002;DHT22;41886;45.688;11.512;2022-10-16T05:24:05;14.50;99.90
56002;DHT22;41886;45.688;11.512;2022-10-16T05:26:31;14.50;99.90
56002;DHT22;41886;45.688;11.512;2022-10-16T05:28:56;14.50;99.90
56002;DHT22;41886;45.688;11.512;2022-10-16T05:31:23;14.50;99.90
56002;DHT22;41886;45.688;11.512;2022-10-16T05:33:49;14.50;99.90
56002;DHT22;41886;45.688;11.512;2022-10-16T05:36:15;14.40;99.90
56002;DHT22;41886;45.688;11.512;2022-10-16T05:38:40;14.40;99.90
56002;DHT22;41886;45.688;11.512;2022-10-16T05:41:06;14.40;99.90
56002;DHT22;41886;45.688;11.512;2022-10-16T05:43:32;14.70;99.90
56002;DHT22;41886;45.688;11.512;2022-10-16T05:46:05;14.60;99.90
56002;DHT22;41886;45.688;11.512;2022-10-16T05:48:31;14.60;99.90
56002;DHT22;41886;45.688;11.512;2022-10-16T05:50:57;14.60;99.90
56002;DHT22;41886;45.688;11.512;2022-10-16T05:53:23;14.40;99.90
56002;DHT22;41886;45.688;11.512;2022-10-16T05:55:54;14.60;99.90
56002;DHT22;41886;45.688;11.512;2022-10-16T05:58:21;14.70;99.90
56002;DHT22;41886;45.688;11.512;2022-10-16T06:00:56;14.80;99.90
56002;DHT22;41886;45.688;11.512;2022-10-16T06:03:22;14.90;99.90
56002;DHT22;41886;45.688;11.512;2022-10-16T06:05:48;14.90;99.90
56002;DHT22;41886;45.688;11.512;2022-10-16T06:08:14;14.90;99.90
56002;DHT22;41886;45.688;11.512;2022-10-16T06:10:40;14.90;99.90
56002;DHT22;41886;45.688;11.512;2022-10-16T06:13:06;14.90;99.90
56002;DHT22;41886;45.688;11.512;2022-10-16T06:15:32;14.90;99.90
56002;DHT22;41886;45.688;11.512;2022-10-16T06:17:58;15.10;99.90
56002;DHT22;41886;45.688;11.512;2022-10-16T06:20:24;15.20;99.90
56002;DHT22;41886;45.688;11.512;2022-10-16T06:22:51;15.10;99.90
56002;DHT22;41886;45.688;11.512;2022-10-16T06:25:17;15.20;99.90
56002;DHT22;41886;45.688;11.512;2022-10-16T06:27:43;15.30;99.90
56002;DHT22;41886;45.688;11.512;2022-10-16T06:30:09;15.20;99.90
56002;DHT22;41886;45.688;11.512;2022-10-16T06:32:36;15.30;99.90
56002;DHT22;41886;45.688;11.512;2022-10-16T06:35:02;15.30;99.90
56002;DHT22;41886;45.688;11.512;2022-10-16T06:37:35;15.40;99.90
56002;DHT22;41886;45.688;11.512;2022-10-16T06:40:01;15.60;99.90
56002;DHT22;41886;45.688;11.512;2022-10-16T06:42:30;15.70;99.90
56002;DHT22;41886;45.688;11.512;2022-10-16T06:45:02;15.80;99.90
56002;DHT22;41886;45.688;11.512;2022-10-16T06:47:28;15.90;99.90
56002;DHT22;41886;45.688;11.512;2022-10-16T06:49:53;15.90;99.90
56002;DHT22;41886;45.688;11.512;2022-10-16T06:52:19;16.00;99.90
56002;DHT22;41886;45.688;11.512;2022-10-16T06:54:45;16.20;99.90
56002;DHT22;41886;45.688;11.512;2022-10-16T06:57:12;16.20;99.90
56002;DHT22;41886;45.688;11.512;2022-10-16T06:59:38;16.20;99.90
56002;DHT22;41886;45.688;11.512;2022-10-16T07:02:04;16.30;99.90
56002;DHT22;41886;45.688;11.512;2022-10-16T07:04:30;16.40;99.90
56002;DHT22;41886;45.688;11.512;2022-10-16T07:06:56;16.40;99.90
56002;DHT22;41886;45.688;11.512;2022-10-16T07:09:22;16.40;99.90
56002;DHT22;41886;45.688;11.512;2022-10-16T07:11:48;16.50;99.90
56002;DHT22;41886;45.688;11.512;2022-10-16T07:14:15;16.70;99.90
56002;DHT22;41886;45.688;11.512;2022-10-16T07:16:42;16.90;99.90
56002;DHT22;41886;45.688;11.512;2022-10-16T07:19:08;17.10;99.90
56002;DHT22;41886;45.688;11.512;2022-10-16T07:21:34;17.20;99.90
56002;DHT22;41886;45.688;11.512;2022-10-16T07:24:07;17.30;99.90
56002;DHT22;41886;45.688;11.512;2022-10-16T07:26:33;17.50;99.90
56002;DHT22;41886;45.688;11.512;2022-10-16T07:29:01;17.60;99.90
56002;DHT22;41886;45.688;11.512;2022-10-16T07:31:27;17.90;99.90
56002;DHT22;41886;45.688;11.512;2022-10-16T07:33:53;18.00;99.90
56002;DHT22;41886;45.688;11.512;2022-10-16T07:36:19;18.10;99.90
56002;DHT22;41886;45.688;11.512;2022-10-16T07:38:46;18.10;99.90
56002;DHT22;41886;45.688;11.512;2022-10-16T07:41:12;18.20;99.90
56002;DHT22;41886;45.688;11.512;2022-10-16T07:43:38;18.20;99.90
56002;DHT22;41886;45.688;11.512;2022-10-16T07:46:05;18.50;99.90
56002;DHT22;41886;45.688;11.512;2022-10-16T07:48:31;18.90;99.90
56002;DHT22;41886;45.688;11.512;2022-10-16T07:51:01;19.10;99.90
56002;DHT22;41886;45.688;11.512;2022-10-16T07:53:26;19.20;99.90
56002;DHT22;41886;45.688;11.512;2022-10-16T07:55:56;19.30;99.90
56002;DHT22;41886;45.688;11.512;2022-10-16T07:58:23;19.30;99.90
56002;DHT22;41886;45.688;11.512;2022-10-16T08:00:48;19.40;99.90
56002;DHT22;41886;45.688;11.512;2022-10-16T08:03:15;19.60;99.90
56002;DHT22;41886;45.688;11.512;2022-10-16T08:05:41;19.60;99.90
56002;DHT22;41886;45.688;11.512;2022-10-16T08:08:10;19.80;99.90
56002;DHT22;41886;45.688;11.512;2022-10-16T08:10:37;20.00;99.90
56002;DHT22;41886;45.688;11.512;2022-10-16T08:13:02;21.00;99.90
56002;DHT22;41886;45.688;11.512;2022-10-16T08:15:29;21.00;99.90
56002;DHT22;41886;45.688;11.512;2022-10-16T08:17:59;21.80;99.90
56002;DHT22;41886;45.688;11.512;2022-10-16T08:20:25;23.50;99.90
56002;DHT22;41886;45.688;11.512;2022-10-16T08:22:54;22.80;99.90
56002;DHT22;41886;45.688;11.512;2022-10-16T08:25:21;22.30;99.90
56002;DHT22;41886;45.688;11.512;2022-10-16T08:27:47;21.60;99.90
56002;DHT22;41886;45.688;11.512;2022-10-16T08:30:13;21.60;99.90
56002;DHT22;41886;45.688;11.512;2022-10-16T08:32:39;23.90;99.90
56002;DHT22;41886;45.688;11.512;2022-10-16T08:35:07;26.30;99.90
56002;DHT22;41886;45.688;11.512;2022-10-16T08:37:34;27.20;99.90
56002;DHT22;41886;45.688;11.512;2022-10-16T08:40:00;27.70;99.90
56002;DHT22;41886;45.688;11.512;2022-10-16T08:42:29;28.10;99.90
56002;DHT22;41886;45.688;11.512;2022-10-16T08:50:41;26.80;99.90
56002;DHT22;41886;45.688;11.512;2022-10-16T08:53:09;27.70;99.90
56002;DHT22;41886;45.688;11.512;2022-10-16T08:55:40;28.40;99.90
56002;DHT22;41886;45.688;11.512;2022-10-16T08:58:11;28.60;99.90
56002;DHT22;41886;45.688;11.512;2022-10-16T09:00:37;29.10;99.90
56002;DHT22;41886;45.688;11.512;2022-10-16T09:06:04;28.30;99.90
56002;DHT22;41886;45.688;11.512;2022-10-16T09:11:17;30.70;99.30
56002;DHT22;41886;45.688;11.512;2022-10-16T09:13:47;30.50;98.80
56002;DHT22;41886;45.688;11.512;2022-10-16T09:16:19;30.90;98.40
56002;DHT22;41886;45.688;11.512;2022-10-16T09:19:01;31.10;97.40
56002;DHT22;41886;45.688;11.512;2022-10-16T09:21:30;30.80;97.10
56002;DHT22;41886;45.688;11.512;2022-10-16T09:24:15;29.90;97.30
56002;DHT22;41886;45.688;11.512;2022-10-16T09:26:41;30.50;97.50
56002;DHT22;41886;45.688;11.512;2022-10-16T09:29:08;30.30;97.40
56002;DHT22;41886;45.688;11.512;2022-10-16T09:31:35;30.80;97.30
56002;DHT22;41886;45.688;11.512;2022-10-16T09:34:02;31.00;96.70
56002;DHT22;41886;45.688;11.512;2022-10-16T09:36:50;31.70;96.60
56002;DHT22;41886;45.688;11.512;2022-10-16T09:39:16;31.50;96.30
56002;DHT22;41886;45.688;11.512;2022-10-16T09:41:43;31.70;95.90
56002;DHT22;41886;45.688;11.512;2022-10-16T09:44:26;31.00;96.40
56002;DHT22;41886;45.688;11.512;2022-10-16T09:47:12;30.90;95.80
56002;DHT22;41886;45.688;11.512;2022-10-16T09:49:38;30.30;96.30
56002;DHT22;41886;45.688;11.512;2022-10-16T09:52:14;31.10;96.50
56002;DHT22;41886;45.688;11.512;2022-10-16T09:54:52;30.30;96.20
56002;DHT22;41886;45.688;11.512;2022-10-16T09:57:19;30.10;96.70
56002;DHT22;41886;45.688;11.512;2022-10-16T09:59:46;31.00;95.80
56002;DHT22;41886;45.688;11.512;2022-10-16T10:02:12;31.40;95.40
56002;DHT22;41886;45.688;11.512;2022-10-16T10:04:40;31.80;95.70
56002;DHT22;41886;45.688;11.512;2022-10-16T10:07:07;32.00;95.20
56002;DHT22;41886;45.688;11.512;2022-10-16T10:09:42;32.30;95.00
56002;DHT22;41886;45.688;11.512;2022-10-16T10:12:26;31.60;95.00
56002;DHT22;41886;45.688;11.512;2022-10-16T10:14:54;31.30;94.80
56002;DHT22;41886;45.688;11.512;2022-10-16T10:17:21;31.80;94.30
56002;DHT22;41886;45.688;11.512;2022-10-16T10:19:54;31.60;94.80
56002;DHT22;41886;45.688;11.512;2022-10-16T10:22:25;31.60;95.10
56002;DHT22;41886;45.688;11.512;2022-10-16T10:24:54;31.70;95.50
56002;DHT22;41886;45.688;11.512;2022-10-16T10:27:21;31.90;94.90
56002;DHT22;41886;45.688;11.512;2022-10-16T10:29:59;31.40;94.80
56002;DHT22;41886;45.688;11.512;2022-10-16T10:35:25;31.30;95.30
56002;DHT22;41886;45.688;11.512;2022-10-16T10:37:57;30.60;95.80
56002;DHT22;41886;45.688;11.512;2022-10-16T10:46:10;30.20;96.40
56002;DHT22;41886;45.688;11.512;2022-10-16T11:07:02;29.50;96.60
56002;DHT22;41886;45.688;11.512;2022-10-16T11:09:48;29.10;96.40
56002;DHT22;41886;45.688;11.512;2022-10-16T11:12:19;28.70;96.90
56002;DHT22;41886;45.688;11.512;2022-10-16T11:14:48;29.50;97.40
56002;DHT22;41886;45.688;11.512;2022-10-16T11:17:18;29.20;96.70
56002;DHT22;41886;45.688;11.512;2022-10-16T11:19:48;29.10;96.80
56002;DHT22;41886;45.688;11.512;2022-10-16T11:24:45;27.80;97.20
56002;DHT22;41886;45.688;11.512;2022-10-16T11:27:18;27.90;97.30
56002;DHT22;41886;45.688;11.512;2022-10-16T11:29:50;28.10;97.70
56002;DHT22;41886;45.688;11.512;2022-10-16T11:32:20;28.10;97.80
56002;DHT22;41886;45.688;11.512;2022-10-16T11:34:49;28.00;97.60
56002;DHT22;41886;45.688;11.512;2022-10-16T11:37:20;27.70;97.70
56002;DHT22;41886;45.688;11.512;2022-10-16T11:39:46;27.60;98.40
56002;DHT22;41886;45.688;11.512;2022-10-16T11:49:44;27.10;98.30
56002;DHT22;41886;45.688;11.512;2022-10-16T11:52:14;27.10;98.40
56002;DHT22;41886;45.688;11.512;2022-10-16T11:54:45;27.60;98.80
56002;DHT22;41886;45.688;11.512;2022-10-16T11:57:16;27.80;98.30
56002;DHT22;41886;45.688;11.512;2022-10-16T11:59:48;27.20;98.40
56002;DHT22;41886;45.688;11.512;2022-10-16T12:04:59;27.10;99.00
56002;DHT22;41886;45.688;11.512;2022-10-16T12:07:32;27.00;98.80
56002;DHT22;41886;45.688;11.512;2022-10-16T12:10:09;26.70;99.30
56002;DHT22;41886;45.688;11.512;2022-10-16T12:15:03;26.60;99.70
56002;DHT22;41886;45.688;11.512;2022-10-16T12:17:36;26.50;99.30
56002;DHT22;41886;45.688;11.512;2022-10-16T12:22:41;26.40;99.90
56002;DHT22;41886;45.688;11.512;2022-10-16T12:25:32;26.90;99.90
56002;DHT22;41886;45.688;11.512;2022-10-16T12:27:59;27.60;99.90
56002;DHT22;41886;45.688;11.512;2022-10-16T12:30:26;27.50;99.90
56002;DHT22;41886;45.688;11.512;2022-10-16T12:32:54;27.40;99.90
56002;DHT22;41886;45.688;11.512;2022-10-16T12:35:21;26.60;99.90
56002;DHT22;41886;45.688;11.512;2022-10-16T12:37:48;26.10;99.90
56002;DHT22;41886;45.688;11.512;2022-10-16T12:42:49;25.40;99.90
56002;DHT22;41886;45.688;11.512;2022-10-16T12:45:31;25.50;99.90
56002;DHT22;41886;45.688;11.512;2022-10-16T12:47:58;24.80;99.90
56002;DHT22;41886;45.688;11.512;2022-10-16T12:50:34;24.70;99.90
56002;DHT22;41886;45.688;11.512;2022-10-16T12:53:00;24.60;99.90
56002;DHT22;41886;45.688;11.512;2022-10-16T12:55:27;24.90;99.90
56002;DHT22;41886;45.688;11.512;2022-10-16T12:58:03;25.20;99.90
56002;DHT22;41886;45.688;11.512;2022-10-16T13:13:37;25.00;99.90
56002;DHT22;41886;45.688;11.512;2022-10-16T13:21:20;25.20;99.90
56002;DHT22;41886;45.688;11.512;2022-10-16T13:26:39;25.80;99.90
56002;DHT22;41886;45.688;11.512;2022-10-16T13:29:08;25.70;99.90
56002;DHT22;41886;45.688;11.512;2022-10-16T13:31:36;25.50;99.90
56002;DHT22;41886;45.688;11.512;2022-10-16T13:34:03;25.50;99.90
56002;DHT22;41886;45.688;11.512;2022-10-16T13:36:35;25.30;99.90
56002;DHT22;41886;45.688;11.512;2022-10-16T13:39:06;25.00;99.90
56002;DHT22;41886;45.688;11.512;2022-10-16T13:41:32;24.70;99.90
56002;DHT22;41886;45.688;11.512;2022-10-16T13:43:58;24.80;99.90
56002;DHT22;41886;45.688;11.512;2022-10-16T13:46:24;24.60;99.90
56002;DHT22;41886;45.688;11.512;2022-10-16T13:49:01;24.50;99.90
56002;DHT22;41886;45.688;11.512;2022-10-16T13:51:28;24.50;99.90
56002;DHT22;41886;45.688;11.512;2022-10-16T13:53:55;24.40;99.90
56002;DHT22;41886;45.688;11.512;2022-10-16T13:56:29;24.60;99.90
56002;DHT22;41886;45.688;11.512;2022-10-16T13:59:03;24.60;99.90
56002;DHT22;41886;45.688;11.512;2022-10-16T14:04:00;24.40;99.90
56002;DHT22;41886;45.688;11.512;2022-10-16T14:06:27;24.10;99.90
56002;DHT22;41886;45.688;11.512;2022-10-16T14:11:27;24.00;99.90
56002;DHT22;41886;45.688;11.512;2022-10-16T14:13:53;24.00;99.90
56002;DHT22;41886;45.688;11.512;2022-10-16T14:16:20;24.10;99.90
56002;DHT22;41886;45.688;11.512;2022-10-16T14:18:50;24.10;99.90
56002;DHT22;41886;45.688;11.512;2022-10-16T14:21:20;24.30;99.90
56002;DHT22;41886;45.688;11.512;2022-10-16T14:23:45;24.20;99.90
56002;DHT22;41886;45.688;11.512;2022-10-16T14:26:12;24.10;99.90
56002;DHT22;41886;45.688;11.512;2022-10-16T14:28:41;24.20;99.90
56002;DHT22;41886;45.688;11.512;2022-10-16T14:31:28;24.10;99.90
56002;DHT22;41886;45.688;11.512;2022-10-16T14:33:54;24.10;99.90
56002;DHT22;41886;45.688;11.512;2022-10-16T14:36:20;23.90;99.90
56002;DHT22;41886;45.688;11.512;2022-10-16T14:39:00;23.90;99.90
56002;DHT22;41886;45.688;11.512;2022-10-16T14:41:27;23.90;99.90
56002;DHT22;41886;45.688;11.512;2022-10-16T14:43:54;23.80;99.90
56002;DHT22;41886;45.688;11.512;2022-10-16T14:46:21;23.60;99.90
56002;DHT22;41886;45.688;11.512;2022-10-16T14:48:53;23.60;99.90
56002;DHT22;41886;45.688;11.512;2022-10-16T14:51:21;23.50;99.90
56002;DHT22;41886;45.688;11.512;2022-10-16T14:53:49;23.60;99.90
56002;DHT22;41886;45.688;11.512;2022-10-16T14:56:17;23.30;99.90
56002;DHT22;41886;45.688;11.512;2022-10-16T14:58:43;23.20;99.90
56002;DHT22;41886;45.688;11.512;2022-10-16T15:01:09;23.20;99.90
56002;DHT22;41886;45.688;11.512;2022-10-16T15:03:37;23.20;99.90
56002;DHT22;41886;45.688;11.512;2022-10-16T15:06:03;23.00;99.90
56002;DHT22;41886;45.688;11.512;2022-10-16T15:08:29;22.90;99.90
56002;DHT22;41886;45.688;11.512;2022-10-16T15:10:55;22.90;99.90
56002;DHT22;41886;45.688;11.512;2022-10-16T15:13:21;22.90;99.90
56002;DHT22;41886;45.688;11.512;2022-10-16T15:15:48;22.90;99.90
56002;DHT22;41886;45.688;11.512;2022-10-16T15:18:17;22.80;99.90
56002;DHT22;41886;45.688;11.512;2022-10-16T15:20:47;22.70;99.90
56002;DHT22;41886;45.688;11.512;2022-10-16T15:23:14;22.60;99.90
56002;DHT22;41886;45.688;11.512;2022-10-16T15:25:44;22.50;99.90
56002;DHT22;41886;45.688;11.512;2022-10-16T15:28:11;22.50;99.90
56002;DHT22;41886;45.688;11.512;2022-10-16T15:30:37;22.50;99.90
56002;DHT22;41886;45.688;11.512;2022-10-16T15:33:04;22.50;99.90
56002;DHT22;41886;45.688;11.512;2022-10-16T15:35:30;22.40;99.90
56002;DHT22;41886;45.688;11.512;2022-10-16T15:37:59;22.30;99.90
56002;DHT22;41886;45.688;11.512;2022-10-16T15:40:26;22.30;99.90
56002;DHT22;41886;45.688;11.512;2022-10-16T15:42:51;22.20;99.90
56002;DHT22;41886;45.688;11.512;2022-10-16T15:45:17;22.10;99.90
56002;DHT22;41886;45.688;11.512;2022-10-16T15:47:44;22.10;99.90
56002;DHT22;41886;45.688;11.512;2022-10-16T15:50:10;22.00;99.90
56002;DHT22;41886;45.688;11.512;2022-10-16T15:52:37;21.90;99.90
56002;DHT22;41886;45.688;11.512;2022-10-16T15:55:05;21.90;99.90
56002;DHT22;41886;45.688;11.512;2022-10-16T15:57:31;21.80;99.90
56002;DHT22;41886;45.688;11.512;2022-10-16T15:59:57;21.70;99.90
56002;DHT22;41886;45.688;11.512;2022-10-16T16:02:23;21.80;99.90
56002;DHT22;41886;45.688;11.512;2022-10-16T16:04:49;21.60;99.90
56002;DHT22;41886;45.688;11.512;2022-10-16T16:07:15;21.60;99.90
56002;DHT22;41886;45.688;11.512;2022-10-16T16:09:41;21.60;99.90
56002;DHT22;41886;45.688;11.512;2022-10-16T16:12:06;21.50;99.90
56002;DHT22;41886;45.688;11.512;2022-10-16T16:14:40;21.30;99.90
56002;DHT22;41886;45.688;11.512;2022-10-16T16:17:06;21.20;99.90
56002;DHT22;41886;45.688;11.512;2022-10-16T16:19:32;21.00;99.90
56002;DHT22;41886;45.688;11.512;2022-10-16T16:21:58;20.90;99.90
56002;DHT22;41886;45.688;11.512;2022-10-16T16:24:23;20.80;99.90
56002;DHT22;41886;45.688;11.512;2022-10-16T16:26:50;20.90;99.90
56002;DHT22;41886;45.688;11.512;2022-10-16T16:29:30;20.80;99.90
56002;DHT22;41886;45.688;11.512;2022-10-16T16:31:56;20.70;99.90
56002;DHT22;41886;45.688;11.512;2022-10-16T16:34:24;20.70;99.90
56002;DHT22;41886;45.688;11.512;2022-10-16T16:36:50;20.70;99.90
56002;DHT22;41886;45.688;11.512;2022-10-16T16:39:16;20.70;99.90
56002;DHT22;41886;45.688;11.512;2022-10-16T16:41:42;20.50;99.90
56002;DHT22;41886;45.688;11.512;2022-10-16T16:44:08;20.50;99.90
56002;DHT22;41886;45.688;11.512;2022-10-16T16:46:36;20.30;99.90
56002;DHT22;41886;45.688;11.512;2022-10-16T16:49:03;19.90;99.90
56002;DHT22;41886;45.688;11.512;2022-10-16T16:51:29;19.80;99.90
56002;DHT22;41886;45.688;11.512;2022-10-16T16:53:55;19.80;99.90
56002;DHT22;41886;45.688;11.512;2022-10-16T16:56:22;19.70;99.90
56002;DHT22;41886;45.688;11.512;2022-10-16T16:58:48;19.70;99.90
56002;DHT22;41886;45.688;11.512;2022-10-16T17:01:14;19.60;99.90